Forside
METAR-TAF:

METAR-TAF

Lufthavne :

Schoolcraft County Airport

Manistique, Michigan, USA

Breddekreds: 45-58-29N, længdekreds: 086-10-19W, højde: 209 m

Aktuelle vejr

Denne rapport blev lavet for 29 minutter siden, kl. 03:15 UTC
Vind 11 kt fra vestnordvest med vindstød på up til 17 kt
Temperatur -9°C
Fugtighed 85%
Tryk 1011 hPa
Sigt: 4.8 km
Overskyet i en højde af 1800 ft
let sne

METAR: KISQ 280315Z AUTO 29011G17KT 3SM -SN OVC018 M09/M11 A2986 RMK AO2 T10951110

Tid: 22:44 (03:44 UTC)


TAF: fraværende

Vejrobservationer og prognoser fra mere end 4000 lufthavne (METAR og TAF).

De gule og røde prikker repræsenterer de meteorologiske stationer.

Flyt musen over at se navnet på stationen.

Så klik over at se vejr observationer og prognoser.

At skifte det kort: Klik på de grønne knapper med et sort kors for at zoome ind; på den grønne knap med en bindestreg for at zoome ud; eller på de grønne pile for tilstødende kort.


METAR-TAF: